createdAt,value
2018-12-27T00:02:38.180Z,-0.80
2018-12-27T00:07:24.147Z,-0.70
2018-12-27T00:12:09.924Z,-0.80
2018-12-27T00:16:55.750Z,-0.80
2018-12-27T00:21:41.695Z,-0.80
2018-12-27T00:26:27.685Z,-0.80
2018-12-27T00:31:13.614Z,-0.80
2018-12-27T00:35:59.588Z,-0.80
2018-12-27T00:40:45.458Z,-0.90
2018-12-27T00:45:31.622Z,-0.80
2018-12-27T00:50:17.476Z,-0.90
2018-12-27T00:55:03.434Z,-0.80
2018-12-27T00:59:49.528Z,-0.80
2018-12-27T01:04:35.531Z,-0.80
2018-12-27T01:09:21.460Z,-0.90
2018-12-27T01:14:07.404Z,-1.10
2018-12-27T01:18:53.285Z,-1.10
2018-12-27T01:23:39.220Z,-1.10
2018-12-27T01:28:25.122Z,-1.00
2018-12-27T01:33:18.499Z,-1.00
2018-12-27T01:37:58.485Z,-1.00
2018-12-27T01:42:44.448Z,-1.00
2018-12-27T01:47:30.312Z,-1.20
2018-12-27T01:52:16.272Z,-1.30
2018-12-27T01:57:02.169Z,-1.50
2018-12-27T02:01:48.094Z,-1.40
2018-12-27T02:06:33.954Z,-1.60
2018-12-27T02:11:19.849Z,-1.60
2018-12-27T02:16:05.762Z,-1.60
2018-12-27T02:20:51.737Z,-1.60
2018-12-27T02:25:37.667Z,-1.50
2018-12-27T02:30:23.536Z,-1.40
2018-12-27T02:35:09.418Z,-1.60
2018-12-27T02:39:55.320Z,-1.50
2018-12-27T02:44:41.185Z,-1.40
2018-12-27T02:49:27.161Z,-1.50
2018-12-27T02:54:13.057Z,-1.60
2018-12-27T02:58:58.949Z,-1.70
2018-12-27T03:03:44.871Z,-1.60
2018-12-27T03:08:30.805Z,-1.50
2018-12-27T03:13:16.652Z,-1.30
2018-12-27T03:18:02.561Z,-1.30
2018-12-27T03:22:48.460Z,-1.40
2018-12-27T03:27:34.424Z,-1.40
2018-12-27T03:32:20.249Z,-1.40
2018-12-27T03:37:06.128Z,-1.40
2018-12-27T03:41:52.010Z,-1.40
2018-12-27T03:46:37.939Z,-1.40
2018-12-27T03:51:23.831Z,-1.50
2018-12-27T03:56:09.695Z,-1.50
2018-12-27T04:00:55.683Z,-1.60
2018-12-27T04:05:41.671Z,-1.80
2018-12-27T04:10:27.601Z,-2.10
2018-12-27T04:15:13.311Z,-2.10
2018-12-27T04:19:59.067Z,-2.10
2018-12-27T04:24:45.062Z,-2.10
2018-12-27T04:29:30.799Z,-1.90
2018-12-27T04:34:18.051Z,-1.80
2018-12-27T04:39:04.735Z,-1.70
2018-12-27T04:43:51.169Z,-1.80
2018-12-27T04:48:37.101Z,-1.80
2018-12-27T04:53:22.801Z,-1.70
2018-12-27T04:58:08.590Z,-1.70
2018-12-27T05:02:54.309Z,-1.70
2018-12-27T05:07:40.100Z,-1.70
2018-12-27T05:12:25.793Z,-1.70
2018-12-27T05:17:11.500Z,-1.80
2018-12-27T05:21:57.226Z,-1.80
2018-12-27T05:26:42.995Z,-1.70
2018-12-27T05:31:28.672Z,-1.70
2018-12-27T05:36:14.470Z,-1.80
2018-12-27T05:41:00.165Z,-1.80
2018-12-27T05:45:45.931Z,-1.90
2018-12-27T05:50:32.137Z,-1.80
2018-12-27T05:55:17.958Z,-1.90
2018-12-27T06:00:03.818Z,-1.90
2018-12-27T06:04:49.534Z,-1.90
2018-12-27T06:09:35.293Z,-1.90
2018-12-27T06:14:21.299Z,-2.10
2018-12-27T06:19:07.052Z,-2.00
2018-12-27T06:23:53.036Z,-2.00
2018-12-27T06:28:38.799Z,-2.10
2018-12-27T06:33:24.576Z,-2.10
2018-12-27T06:38:10.372Z,-2.10
2018-12-27T06:42:56.175Z,-2.20
2018-12-27T06:47:41.987Z,-2.20
2018-12-27T06:52:27.778Z,-2.10
2018-12-27T06:57:13.847Z,-2.10
2018-12-27T07:01:59.603Z,-2.00
2018-12-27T07:06:45.334Z,-2.00
2018-12-27T07:11:31.096Z,-1.90
2018-12-27T07:16:17.041Z,-1.90
2018-12-27T07:21:02.815Z,-2.00
2018-12-27T07:25:48.692Z,-2.00
2018-12-27T07:30:34.553Z,-2.10
2018-12-27T07:35:21.378Z,-2.10
2018-12-27T07:40:07.852Z,-2.10
2018-12-27T07:44:53.662Z,-1.90
2018-12-27T07:49:39.399Z,-1.90
2018-12-27T07:54:25.604Z,-1.90
2018-12-27T07:59:11.370Z,-1.70
2018-12-27T08:03:57.136Z,-1.70
2018-12-27T08:08:42.873Z,-1.80
2018-12-27T08:13:28.701Z,-1.80
2018-12-27T08:18:14.433Z,-1.80
2018-12-27T08:23:00.262Z,-1.80
2018-12-27T08:27:46.381Z,-1.60
2018-12-27T08:32:32.251Z,-1.50
2018-12-27T08:37:18.053Z,-1.40
2018-12-27T08:42:03.957Z,-1.20
2018-12-27T08:46:50.009Z,-1.10
2018-12-27T08:51:35.775Z,-1.30
2018-12-27T08:56:21.593Z,-1.20
2018-12-27T09:01:07.612Z,-1.10
2018-12-27T09:05:53.532Z,-0.90
2018-12-27T09:10:39.473Z,-0.60
2018-12-27T09:15:25.350Z,-0.90
2018-12-27T09:20:13.497Z,-0.70
2018-12-27T09:24:59.415Z,-0.80
2018-12-27T09:29:45.579Z,-1.10
2018-12-27T09:34:31.566Z,-1.20
2018-12-27T09:39:17.329Z,-1.00
2018-12-27T09:44:03.056Z,-1.00
2018-12-27T09:48:49.032Z,-0.90
2018-12-27T09:53:34.945Z,-0.70
2018-12-27T09:58:20.730Z,-0.50
2018-12-27T10:03:06.677Z,-0.80
2018-12-27T10:07:57.476Z,-1.00
2018-12-27T10:12:39.874Z,-0.70
2018-12-27T10:17:25.670Z,-0.70
2018-12-27T10:22:11.451Z,-0.40
2018-12-27T10:26:57.337Z,-0.20
2018-12-27T10:31:43.185Z,0.40
2018-12-27T10:36:28.973Z,0.90
2018-12-27T10:41:14.796Z,1.50
2018-12-27T10:46:00.750Z,1.70
2018-12-27T10:50:46.534Z,1.60
2018-12-27T10:55:32.368Z,1.30
2018-12-27T11:00:18.113Z,1.10
2018-12-27T11:05:03.930Z,1.00
2018-12-27T11:09:49.942Z,1.10
2018-12-27T11:14:37.380Z,1.10
2018-12-27T11:19:23.132Z,1.10
2018-12-27T11:24:09.062Z,1.20
2018-12-27T11:28:55.002Z,1.10
2018-12-27T11:33:42.434Z,1.00
2018-12-27T11:38:28.217Z,1.30
2018-12-27T11:43:14.060Z,1.50
2018-12-27T11:47:59.858Z,1.50
2018-12-27T11:52:45.782Z,1.40
2018-12-27T11:57:31.707Z,1.50
2018-12-27T12:02:17.452Z,1.50
2018-12-27T12:07:03.394Z,1.60
2018-12-27T12:11:50.330Z,1.60
2018-12-27T12:16:36.070Z,1.80
2018-12-27T12:21:21.819Z,2.00
2018-12-27T12:26:07.844Z,2.40
2018-12-27T12:30:53.691Z,2.40
2018-12-27T12:35:39.479Z,2.50
2018-12-27T12:40:25.456Z,2.10
2018-12-27T12:45:11.417Z,1.90
2018-12-27T12:49:57.363Z,1.80
2018-12-27T12:54:43.111Z,2.00
2018-12-27T12:59:29.357Z,2.40
2018-12-27T13:04:15.260Z,2.50
2018-12-27T13:09:01.088Z,2.60
2018-12-27T13:13:46.957Z,2.50
2018-12-27T13:18:32.803Z,2.60
2018-12-27T13:23:18.641Z,2.40
2018-12-27T13:28:04.536Z,2.00
2018-12-27T13:32:50.362Z,1.80
2018-12-27T13:37:55.296Z,1.80
2018-12-27T13:42:44.020Z,1.80
2018-12-27T13:47:28.849Z,2.10
2018-12-27T13:52:14.671Z,2.10
2018-12-27T13:57:00.532Z,2.40
2018-12-27T14:01:46.431Z,2.50
2018-12-27T14:06:32.824Z,2.30
2018-12-27T14:11:18.827Z,2.00
2018-12-27T14:16:04.966Z,2.10
2018-12-27T14:20:50.706Z,2.00
2018-12-27T14:25:36.472Z,2.00
2018-12-27T14:30:22.331Z,2.00
2018-12-27T14:35:08.578Z,1.90
2018-12-27T14:39:54.353Z,1.80
2018-12-27T14:44:40.220Z,1.60
2018-12-27T14:49:26.037Z,1.60
2018-12-27T14:54:11.833Z,1.50
2018-12-27T14:58:57.695Z,1.40
2018-12-27T15:03:43.906Z,1.30
2018-12-27T15:08:29.729Z,1.20
2018-12-27T15:13:15.627Z,1.20
2018-12-27T15:18:01.360Z,1.20
2018-12-27T15:22:47.176Z,1.00
2018-12-27T15:27:33.129Z,1.00
2018-12-27T15:32:19.010Z,0.90
2018-12-27T15:37:04.926Z,0.80
2018-12-27T15:41:50.756Z,0.70
2018-12-27T15:46:36.511Z,0.70
2018-12-27T15:51:22.374Z,0.70
2018-12-27T15:56:08.124Z,0.70
2018-12-27T16:00:54.068Z,0.70
2018-12-27T16:05:39.936Z,0.80
2018-12-27T16:10:25.707Z,0.70
2018-12-27T16:15:11.744Z,0.70
2018-12-27T16:19:57.569Z,0.70
2018-12-27T16:24:43.430Z,0.70
2018-12-27T16:29:29.465Z,0.70
2018-12-27T16:34:15.257Z,0.70
2018-12-27T16:39:01.075Z,0.70
2018-12-27T16:43:47.293Z,0.70
2018-12-27T16:48:33.165Z,0.70
2018-12-27T16:53:19.133Z,0.70
2018-12-27T16:58:05.114Z,0.60
2018-12-27T17:02:51.098Z,0.60
2018-12-27T17:07:36.962Z,0.60
2018-12-27T17:12:22.880Z,0.50
2018-12-27T17:17:08.866Z,0.60
2018-12-27T17:21:54.777Z,0.60
2018-12-27T17:26:40.761Z,0.50
2018-12-27T17:31:26.590Z,0.60
2018-12-27T17:36:12.796Z,0.50
2018-12-27T17:40:58.758Z,0.50
2018-12-27T17:45:44.838Z,0.50
2018-12-27T17:50:31.233Z,0.50
2018-12-27T17:55:17.165Z,0.50
2018-12-27T18:00:03.306Z,0.50
2018-12-27T18:04:49.092Z,0.40
2018-12-27T18:09:37.282Z,0.40
2018-12-27T18:14:23.192Z,0.40
2018-12-27T18:19:09.045Z,0.30
2018-12-27T18:23:54.952Z,0.40
2018-12-27T18:28:40.702Z,0.40
2018-12-27T18:33:26.736Z,0.40
2018-12-27T18:38:12.691Z,0.50
2018-12-27T18:42:58.737Z,0.50
2018-12-27T18:47:45.913Z,0.60
2018-12-27T18:52:31.766Z,0.50
2018-12-27T18:57:18.546Z,0.40
2018-12-27T19:02:04.571Z,0.40
2018-12-27T19:06:50.554Z,0.40
2018-12-27T19:12:12.119Z,0.40
2018-12-27T19:16:58.489Z,0.40
2018-12-27T19:21:52.311Z,0.50
2018-12-27T19:26:38.380Z,0.30
2018-12-27T19:31:24.341Z,0.30
2018-12-27T19:36:10.427Z,0.20
2018-12-27T19:40:56.461Z,0.00
2018-12-27T19:45:42.640Z,0.00
2018-12-27T19:50:28.651Z,0.10
2018-12-27T19:55:14.543Z,0.10
2018-12-27T20:00:00.430Z,0.00
2018-12-27T20:04:46.234Z,0.00
2018-12-27T20:09:32.079Z,0.00
2018-12-27T20:14:18.244Z,-0.10
2018-12-27T20:19:04.146Z,-0.10
2018-12-27T20:23:49.974Z,-0.10
2018-12-27T20:28:35.961Z,-0.10
2018-12-27T20:33:21.984Z,-0.10
2018-12-27T20:38:07.951Z,-0.20
2018-12-27T20:42:53.951Z,-0.20
2018-12-27T20:47:39.882Z,-0.20
2018-12-27T20:52:25.917Z,-0.30
2018-12-27T20:57:11.941Z,-0.20
2018-12-27T21:01:57.806Z,-0.20
2018-12-27T21:06:43.867Z,-0.30
2018-12-27T21:11:29.640Z,-0.30
2018-12-27T21:16:15.612Z,-0.40
2018-12-27T21:21:01.783Z,-0.40
2018-12-27T21:25:47.946Z,-0.40
2018-12-27T21:30:33.995Z,-0.30
2018-12-27T21:35:20.231Z,-0.30
2018-12-27T21:40:06.637Z,-0.20
2018-12-27T21:44:52.683Z,0.00
2018-12-27T21:49:38.512Z,-0.10
2018-12-27T21:54:25.339Z,-0.10
2018-12-27T21:59:11.236Z,0.00
2018-12-27T22:03:57.239Z,0.00
2018-12-27T22:08:43.290Z,0.10
2018-12-27T22:13:29.103Z,0.00
2018-12-27T22:18:15.206Z,-0.20
2018-12-27T22:23:01.131Z,-0.20
2018-12-27T22:27:47.149Z,0.00
2018-12-27T22:32:33.117Z,-0.10
2018-12-27T22:37:19.090Z,-0.20
2018-12-27T22:42:05.118Z,-0.40
2018-12-27T22:46:51.116Z,-0.30
2018-12-27T22:51:37.228Z,-0.30
2018-12-27T22:56:23.234Z,-0.30
2018-12-27T23:01:10.137Z,-0.40
2018-12-27T23:05:55.916Z,-0.40
2018-12-27T23:10:41.768Z,-0.40
2018-12-27T23:15:27.677Z,-0.40
2018-12-27T23:20:13.531Z,-0.40
2018-12-27T23:24:59.294Z,-0.40
2018-12-27T23:29:45.203Z,-0.40
2018-12-27T23:34:30.993Z,-0.50
2018-12-27T23:39:16.707Z,-0.70
2018-12-27T23:44:02.506Z,-0.70
2018-12-27T23:48:48.297Z,-0.70
2018-12-27T23:53:34.156Z,-0.70
2018-12-27T23:58:19.940Z,-0.80
